sensor_id;sensor_type;location;lat;lon;timestamp;P1;durP1;ratioP1;P2;durP2;ratioP2
10653;SDS011;5375;51.250;6.776;2023-05-13T19:02:29;2.00;;;1.90;;
10653;SDS011;5375;51.250;6.776;2023-05-13T19:04:55;3.60;;;1.67;;
10653;SDS011;5375;51.250;6.776;2023-05-13T19:07:21;2.30;;;1.80;;
10653;SDS011;5375;51.250;6.776;2023-05-13T19:09:47;1.80;;;1.70;;
10653;SDS011;5375;51.250;6.776;2023-05-13T19:12:14;2.10;;;1.80;;
10653;SDS011;5375;51.250;6.776;2023-05-13T19:14:40;2.37;;;2.17;;
10653;SDS011;5375;51.250;6.776;2023-05-13T19:17:06;1.97;;;1.70;;
10653;SDS011;5375;51.250;6.776;2023-05-13T19:19:31;2.03;;;1.80;;
10653;SDS011;5375;51.250;6.776;2023-05-13T19:21:59;2.47;;;1.70;;
10653;SDS011;5375;51.250;6.776;2023-05-13T19:24:25;1.77;;;1.67;;
10653;SDS011;5375;51.250;6.776;2023-05-13T19:26:51;1.97;;;1.77;;
10653;SDS011;5375;51.250;6.776;2023-05-13T19:29:17;2.13;;;1.87;;
10653;SDS011;5375;51.250;6.776;2023-05-13T19:31:42;1.50;;;1.40;;
10653;SDS011;5375;51.250;6.776;2023-05-13T19:34:09;2.10;;;1.70;;
10653;SDS011;5375;51.250;6.776;2023-05-13T19:36:34;1.95;;;1.75;;
10653;SDS011;5375;51.250;6.776;2023-05-13T19:39:00;2.10;;;1.85;;
10653;SDS011;5375;51.250;6.776;2023-05-13T19:41:26;1.70;;;1.50;;
10653;SDS011;5375;51.250;6.776;2023-05-13T19:43:51;3.13;;;2.08;;
10653;SDS011;5375;51.250;6.776;2023-05-13T19:46:17;2.07;;;1.87;;
10653;SDS011;5375;51.250;6.776;2023-05-13T19:48:44;3.20;;;1.90;;
10653;SDS011;5375;51.250;6.776;2023-05-13T19:51:13;2.60;;;2.13;;
10653;SDS011;5375;51.250;6.776;2023-05-13T19:53:39;2.10;;;1.90;;
10653;SDS011;5375;51.250;6.776;2023-05-13T19:56:05;2.25;;;1.90;;
10653;SDS011;5375;51.250;6.776;2023-05-13T19:58:30;3.27;;;2.13;;
10653;SDS011;5375;51.250;6.776;2023-05-13T20:00:56;3.28;;;2.00;;
10653;SDS011;5375;51.250;6.776;2023-05-13T20:03:22;2.53;;;1.90;;
10653;SDS011;5375;51.250;6.776;2023-05-13T20:05:49;2.60;;;1.90;;
10653;SDS011;5375;51.250;6.776;2023-05-13T20:08:16;2.22;;;2.03;;
10653;SDS011;5375;51.250;6.776;2023-05-13T20:10:42;2.22;;;1.98;;
10653;SDS011;5375;51.250;6.776;2023-05-13T20:13:08;2.92;;;2.10;;
10653;SDS011;5375;51.250;6.776;2023-05-13T20:15:34;3.73;;;2.07;;
10653;SDS011;5375;51.250;6.776;2023-05-13T20:17:59;3.05;;;2.13;;
10653;SDS011;5375;51.250;6.776;2023-05-13T20:20:25;2.58;;;2.22;;
10653;SDS011;5375;51.250;6.776;2023-05-13T20:22:51;2.65;;;2.13;;
10653;SDS011;5375;51.250;6.776;2023-05-13T20:25:16;2.77;;;2.27;;
10653;SDS011;5375;51.250;6.776;2023-05-13T20:27:43;2.47;;;2.28;;
10653;SDS011;5375;51.250;6.776;2023-05-13T20:30:10;3.03;;;2.25;;
10653;SDS011;5375;51.250;6.776;2023-05-13T20:32:36;2.67;;;2.33;;
10653;SDS011;5375;51.250;6.776;2023-05-13T20:35:02;3.13;;;2.33;;
10653;SDS011;5375;51.250;6.776;2023-05-13T20:37:31;3.00;;;2.13;;
10653;SDS011;5375;51.250;6.776;2023-05-13T20:39:57;3.00;;;2.08;;
10653;SDS011;5375;51.250;6.776;2023-05-13T20:42:24;4.25;;;2.40;;
10653;SDS011;5375;51.250;6.776;2023-05-13T20:44:51;2.33;;;2.13;;
10653;SDS011;5375;51.250;6.776;2023-05-13T20:47:16;2.88;;;2.42;;
10653;SDS011;5375;51.250;6.776;2023-05-13T20:49:43;4.38;;;2.13;;
10653;SDS011;5375;51.250;6.776;2023-05-13T20:52:09;2.80;;;2.47;;
10653;SDS011;5375;51.250;6.776;2023-05-13T20:54:35;2.75;;;2.10;;
10653;SDS011;5375;51.250;6.776;2023-05-13T20:57:01;2.95;;;2.10;;
10653;SDS011;5375;51.250;6.776;2023-05-13T20:59:27;4.00;;;2.22;;
10653;SDS011;5375;51.250;6.776;2023-05-13T21:01:54;2.67;;;2.30;;
10653;SDS011;5375;51.250;6.776;2023-05-13T21:04:19;2.90;;;2.25;;
10653;SDS011;5375;51.250;6.776;2023-05-13T21:06:51;2.85;;;2.25;;
10653;SDS011;5375;51.250;6.776;2023-05-13T21:09:19;2.65;;;2.40;;
10653;SDS011;5375;51.250;6.776;2023-05-13T21:11:45;3.45;;;2.50;;
10653;SDS011;5375;51.250;6.776;2023-05-13T21:14:11;3.20;;;2.42;;
10653;SDS011;5375;51.250;6.776;2023-05-13T21:16:36;2.75;;;2.42;;
10653;SDS011;5375;51.250;6.776;2023-05-13T21:19:02;5.00;;;2.58;;
10653;SDS011;5375;51.250;6.776;2023-05-13T21:21:28;2.88;;;2.50;;
10653;SDS011;5375;51.250;6.776;2023-05-13T21:23:53;4.80;;;2.65;;
10653;SDS011;5375;51.250;6.776;2023-05-13T21:26:19;2.95;;;2.65;;
10653;SDS011;5375;51.250;6.776;2023-05-13T21:28:46;3.20;;;2.90;;
10653;SDS011;5375;51.250;6.776;2023-05-13T21:31:11;5.00;;;2.60;;
10653;SDS011;5375;51.250;6.776;2023-05-13T21:33:39;4.57;;;2.60;;
10653;SDS011;5375;51.250;6.776;2023-05-13T21:36:04;3.20;;;2.90;;
10653;SDS011;5375;51.250;6.776;2023-05-13T21:38:31;2.70;;;2.50;;
10653;SDS011;5375;51.250;6.776;2023-05-13T21:41:03;3.58;;;2.67;;
10653;SDS011;5375;51.250;6.776;2023-05-13T21:43:29;4.72;;;3.10;;
10653;SDS011;5375;51.250;6.776;2023-05-13T21:45:59;2.92;;;2.63;;
10653;SDS011;5375;51.250;6.776;2023-05-13T21:48:26;3.10;;;2.78;;
10653;SDS011;5375;51.250;6.776;2023-05-13T21:50:58;3.20;;;2.90;;
10653;SDS011;5375;51.250;6.776;2023-05-13T21:53:24;3.42;;;2.80;;
10653;SDS011;5375;51.250;6.776;2023-05-13T21:55:50;3.50;;;2.88;;
10653;SDS011;5375;51.250;6.776;2023-05-13T21:58:15;3.55;;;2.78;;
10653;SDS011;5375;51.250;6.776;2023-05-13T22:00:41;4.10;;;2.80;;
10653;SDS011;5375;51.250;6.776;2023-05-13T22:03:07;3.35;;;2.78;;
10653;SDS011;5375;51.250;6.776;2023-05-13T22:05:33;3.33;;;2.85;;
10653;SDS011;5375;51.250;6.776;2023-05-13T22:08:06;3.00;;;2.67;;
10653;SDS011;5375;51.250;6.776;2023-05-13T22:10:34;3.13;;;2.83;;
10653;SDS011;5375;51.250;6.776;2023-05-13T22:13:00;3.78;;;2.53;;
10653;SDS011;5375;51.250;6.776;2023-05-13T22:15:31;3.33;;;2.92;;
10653;SDS011;5375;51.250;6.776;2023-05-13T22:17:58;6.28;;;2.95;;
10653;SDS011;5375;51.250;6.776;2023-05-13T22:20:24;4.30;;;3.10;;
10653;SDS011;5375;51.250;6.776;2023-05-13T22:22:51;3.20;;;2.88;;
10653;SDS011;5375;51.250;6.776;2023-05-13T22:25:17;2.97;;;2.67;;
10653;SDS011;5375;51.250;6.776;2023-05-13T22:27:43;3.78;;;2.83;;
10653;SDS011;5375;51.250;6.776;2023-05-13T22:30:10;5.07;;;3.05;;
10653;SDS011;5375;51.250;6.776;2023-05-13T22:32:36;3.30;;;2.85;;
10653;SDS011;5375;51.250;6.776;2023-05-13T22:35:03;3.92;;;3.00;;
10653;SDS011;5375;51.250;6.776;2023-05-13T22:37:30;4.65;;;2.92;;
10653;SDS011;5375;51.250;6.776;2023-05-13T22:39:57;3.22;;;2.90;;
10653;SDS011;5375;51.250;6.776;2023-05-13T22:42:23;3.85;;;2.80;;
10653;SDS011;5375;51.250;6.776;2023-05-13T22:44:48;5.05;;;3.10;;
10653;SDS011;5375;51.250;6.776;2023-05-13T22:47:15;3.75;;;3.00;;
10653;SDS011;5375;51.250;6.776;2023-05-13T22:49:42;3.20;;;2.90;;
10653;SDS011;5375;51.250;6.776;2023-05-13T22:52:08;3.20;;;2.88;;
10653;SDS011;5375;51.250;6.776;2023-05-13T22:54:37;3.75;;;3.42;;
10653;SDS011;5375;51.250;6.776;2023-05-13T22:57:03;5.28;;;2.90;;
10653;SDS011;5375;51.250;6.776;2023-05-13T22:59:28;3.65;;;3.10;;
10653;SDS011;5375;51.250;6.776;2023-05-13T23:01:54;4.45;;;3.13;;
10653;SDS011;5375;51.250;6.776;2023-05-13T23:04:20;3.28;;;2.97;;
10653;SDS011;5375;51.250;6.776;2023-05-13T23:06:45;3.75;;;2.80;;
10653;SDS011;5375;51.250;6.776;2023-05-13T23:09:11;4.18;;;2.95;;
10653;SDS011;5375;51.250;6.776;2023-05-13T23:11:37;2.90;;;2.35;;
10653;SDS011;5375;51.250;6.776;2023-05-13T23:14:02;4.05;;;2.92;;
10653;SDS011;5375;51.250;6.776;2023-05-13T23:16:28;3.10;;;2.80;;
10653;SDS011;5375;51.250;6.776;2023-05-13T23:18:54;3.15;;;2.85;;
10653;SDS011;5375;51.250;6.776;2023-05-13T23:21:22;3.38;;;2.88;;
10653;SDS011;5375;51.250;6.776;2023-05-13T23:23:50;3.70;;;3.20;;
10653;SDS011;5375;51.250;6.776;2023-05-13T23:26:16;3.67;;;3.00;;
10653;SDS011;5375;51.250;6.776;2023-05-13T23:28:42;3.88;;;3.17;;
10653;SDS011;5375;51.250;6.776;2023-05-13T23:31:09;4.05;;;3.03;;
10653;SDS011;5375;51.250;6.776;2023-05-13T23:33:34;2.90;;;2.60;;
10653;SDS011;5375;51.250;6.776;2023-05-13T23:36:00;3.55;;;2.65;;
10653;SDS011;5375;51.250;6.776;2023-05-13T23:38:26;3.00;;;2.70;;
10653;SDS011;5375;51.250;6.776;2023-05-13T23:40:51;5.18;;;3.47;;
10653;SDS011;5375;51.250;6.776;2023-05-13T23:43:17;2.88;;;2.50;;
10653;SDS011;5375;51.250;6.776;2023-05-13T23:45:43;3.05;;;2.75;;
10653;SDS011;5375;51.250;6.776;2023-05-13T23:48:10;3.38;;;3.08;;
10653;SDS011;5375;51.250;6.776;2023-05-13T23:50:35;4.10;;;3.00;;
10653;SDS011;5375;51.250;6.776;2023-05-13T23:53:01;3.63;;;3.15;;
10653;SDS011;5375;51.250;6.776;2023-05-13T23:55:27;3.88;;;3.30;;
10653;SDS011;5375;51.250;6.776;2023-05-13T23:57:52;5.88;;;3.35;;
